sensor_id;sensor_type;location;lat;lon;timestamp;pressure;altitude;pressure_sealevel;temperature;humidity
82951;BME280;72737;53.332;6.514;2024-02-15T00:00:10;101364.84;;;17.02;59.79
82951;BME280;72737;53.332;6.514;2024-02-15T00:02:35;101368.88;;;16.91;59.83
82951;BME280;72737;53.332;6.514;2024-02-15T00:05:00;101374.88;;;16.93;60.04
82951;BME280;72737;53.332;6.514;2024-02-15T00:07:26;101373.44;;;16.96;59.78
82951;BME280;72737;53.332;6.514;2024-02-15T00:09:52;101380.66;;;16.92;59.93
82951;BME280;72737;53.332;6.514;2024-02-15T00:12:18;101380.28;;;16.98;60.02
82951;BME280;72737;53.332;6.514;2024-02-15T00:14:44;101385.16;;;17.01;59.85
82951;BME280;72737;53.332;6.514;2024-02-15T00:17:09;101375.16;;;16.92;59.98
82951;BME280;72737;53.332;6.514;2024-02-15T00:19:36;101377.53;;;16.98;59.60
82951;BME280;72737;53.332;6.514;2024-02-15T00:22:03;101372.25;;;17.02;59.52
82951;BME280;72737;53.332;6.514;2024-02-15T00:24:29;101374.19;;;17.01;59.89
82951;BME280;72737;53.332;6.514;2024-02-15T00:26:56;101372.78;;;17.04;59.62
82951;BME280;72737;53.332;6.514;2024-02-15T00:29:21;101366.47;;;17.03;60.02
82951;BME280;72737;53.332;6.514;2024-02-15T00:31:47;101377.84;;;16.97;60.00
82951;BME280;72737;53.332;6.514;2024-02-15T00:34:12;101371.94;;;16.90;60.42
82951;BME280;72737;53.332;6.514;2024-02-15T00:36:38;101352.34;;;16.78;60.54
82951;BME280;72737;53.332;6.514;2024-02-15T00:39:03;101359.69;;;16.82;60.32
82951;BME280;72737;53.332;6.514;2024-02-15T00:41:32;101361.91;;;16.80;60.84
82951;BME280;72737;53.332;6.514;2024-02-15T00:43:59;101366.59;;;16.80;60.84
82951;BME280;72737;53.332;6.514;2024-02-15T00:46:25;101369.56;;;16.83;60.71
82951;BME280;72737;53.332;6.514;2024-02-15T00:48:54;101368.22;;;16.81;61.11
82951;BME280;72737;53.332;6.514;2024-02-15T00:51:20;101378.97;;;16.77;60.87
82951;BME280;72737;53.332;6.514;2024-02-15T00:53:45;101371.28;;;16.79;61.23
82951;BME280;72737;53.332;6.514;2024-02-15T00:56:11;101363.78;;;16.85;61.12
82951;BME280;72737;53.332;6.514;2024-02-15T00:58:36;101364.31;;;16.68;61.45
82951;BME280;72737;53.332;6.514;2024-02-15T01:01:02;101374.97;;;16.88;60.93
82951;BME280;72737;53.332;6.514;2024-02-15T01:03:27;101375.78;;;16.89;60.57
82951;BME280;72737;53.332;6.514;2024-02-15T01:05:53;101376.00;;;16.92;60.76
82951;BME280;72737;53.332;6.514;2024-02-15T01:08:18;101368.50;;;16.98;60.20
82951;BME280;72737;53.332;6.514;2024-02-15T01:10:46;101353.75;;;16.94;60.32
82951;BME280;72737;53.332;6.514;2024-02-15T01:13:11;101366.56;;;16.98;60.39
82951;BME280;72737;53.332;6.514;2024-02-15T01:15:37;101370.34;;;17.02;60.39
82951;BME280;72737;53.332;6.514;2024-02-15T01:18:04;101361.53;;;16.87;60.84
82951;BME280;72737;53.332;6.514;2024-02-15T01:20:30;101361.97;;;16.75;61.15
82951;BME280;72737;53.332;6.514;2024-02-15T01:22:56;101365.63;;;16.70;61.22
82951;BME280;72737;53.332;6.514;2024-02-15T01:25:21;101381.25;;;16.70;61.79
82951;BME280;72737;53.332;6.514;2024-02-15T01:27:46;101373.03;;;16.70;61.96
82951;BME280;72737;53.332;6.514;2024-02-15T01:30:13;101375.78;;;16.70;61.90
82951;BME280;72737;53.332;6.514;2024-02-15T01:32:38;101372.25;;;16.69;61.60
82951;BME280;72737;53.332;6.514;2024-02-15T01:35:07;101372.59;;;16.63;61.89
82951;BME280;72737;53.332;6.514;2024-02-15T01:37:35;101385.06;;;16.74;61.86
82951;BME280;72737;53.332;6.514;2024-02-15T01:40:00;101367.75;;;16.55;61.88
82951;BME280;72737;53.332;6.514;2024-02-15T01:42:26;101385.72;;;16.66;61.85
82951;BME280;72737;53.332;6.514;2024-02-15T01:44:51;101386.63;;;16.61;62.22
82951;BME280;72737;53.332;6.514;2024-02-15T01:47:18;101377.00;;;16.64;62.20
82951;BME280;72737;53.332;6.514;2024-02-15T01:49:48;101369.38;;;16.56;62.03
82951;BME280;72737;53.332;6.514;2024-02-15T01:52:15;101382.97;;;16.66;61.85
82951;BME280;72737;53.332;6.514;2024-02-15T01:54:42;101373.72;;;16.62;62.24
82951;BME280;72737;53.332;6.514;2024-02-15T01:57:07;101372.06;;;16.61;62.01
82951;BME280;72737;53.332;6.514;2024-02-15T01:59:33;101382.97;;;16.66;62.77
82951;BME280;72737;53.332;6.514;2024-02-15T02:01:58;101377.59;;;16.80;62.01
82951;BME280;72737;53.332;6.514;2024-02-15T02:04:24;101375.69;;;16.75;62.38
82951;BME280;72737;53.332;6.514;2024-02-15T02:06:49;101386.09;;;16.78;62.48
82951;BME280;72737;53.332;6.514;2024-02-15T02:09:15;101378.53;;;16.70;62.11
82951;BME280;72737;53.332;6.514;2024-02-15T02:11:45;101375.78;;;16.70;61.99
82951;BME280;72737;53.332;6.514;2024-02-15T02:14:11;101386.84;;;16.65;62.29
82951;BME280;72737;53.332;6.514;2024-02-15T02:16:37;101391.22;;;16.66;62.42
82951;BME280;72737;53.332;6.514;2024-02-15T02:19:04;101379.66;;;16.69;62.35
82951;BME280;72737;53.332;6.514;2024-02-15T02:21:34;101378.44;;;16.75;62.43
82951;BME280;72737;53.332;6.514;2024-02-15T02:24:02;101373.84;;;16.70;62.29
82951;BME280;72737;53.332;6.514;2024-02-15T02:26:33;101371.78;;;16.62;62.24
82951;BME280;72737;53.332;6.514;2024-02-15T02:28:58;101380.75;;;16.68;62.40
82951;BME280;72737;53.332;6.514;2024-02-15T02:31:24;101371.44;;;16.69;62.55
82951;BME280;72737;53.332;6.514;2024-02-15T02:33:51;101374.91;;;16.75;62.08
82951;BME280;72737;53.332;6.514;2024-02-15T02:36:18;101368.00;;;16.77;62.09
82951;BME280;72737;53.332;6.514;2024-02-15T02:38:43;101365.47;;;16.62;62.36
82951;BME280;72737;53.332;6.514;2024-02-15T02:41:10;101375.06;;;16.64;62.47
82951;BME280;72737;53.332;6.514;2024-02-15T02:43:35;101379.66;;;16.69;62.47
82951;BME280;72737;53.332;6.514;2024-02-15T02:46:02;101364.09;;;16.64;62.00
82951;BME280;72737;53.332;6.514;2024-02-15T02:48:30;101365.69;;;16.47;62.72
82951;BME280;72737;53.332;6.514;2024-02-15T02:50:55;101365.31;;;16.53;62.33
82951;BME280;72737;53.332;6.514;2024-02-15T02:53:21;101373.66;;;16.67;61.77
82951;BME280;72737;53.332;6.514;2024-02-15T02:55:46;101372.00;;;16.66;62.04
82951;BME280;72737;53.332;6.514;2024-02-15T02:58:12;101377.50;;;16.66;62.18
82951;BME280;72737;53.332;6.514;2024-02-15T03:00:38;101377.94;;;16.73;62.11
82951;BME280;72737;53.332;6.514;2024-02-15T03:03:05;101379.59;;;16.74;62.04
82951;BME280;72737;53.332;6.514;2024-02-15T03:05:30;101358.59;;;16.64;61.89
82951;BME280;72737;53.332;6.514;2024-02-15T03:07:56;101368.59;;;16.74;62.18
82951;BME280;72737;53.332;6.514;2024-02-15T03:10:22;101366.59;;;16.61;62.30
82951;BME280;72737;53.332;6.514;2024-02-15T03:12:49;101369.38;;;16.56;62.23
82951;BME280;72737;53.332;6.514;2024-02-15T03:15:14;101364.16;;;16.59;62.18
82951;BME280;72737;53.332;6.514;2024-02-15T03:17:41;101371.44;;;16.69;62.21
82951;BME280;72737;53.332;6.514;2024-02-15T03:20:11;101357.84;;;16.59;62.11
82951;BME280;72737;53.332;6.514;2024-02-15T03:23:06;101370.81;;;16.72;61.79
82951;BME280;72737;53.332;6.514;2024-02-15T03:25:32;101370.28;;;16.70;61.63
82951;BME280;72737;53.332;6.514;2024-02-15T03:28:00;101360.59;;;16.59;62.03
82951;BME280;72737;53.332;6.514;2024-02-15T03:30:30;101357.16;;;16.48;62.47
82951;BME280;72737;53.332;6.514;2024-02-15T03:32:56;101353.00;;;16.51;62.19
82951;BME280;72737;53.332;6.514;2024-02-15T03:35:24;101358.59;;;16.64;62.13
82951;BME280;72737;53.332;6.514;2024-02-15T03:37:50;101341.72;;;16.52;62.18
82951;BME280;72737;53.332;6.514;2024-02-15T03:40:17;101355.13;;;16.59;62.45
82951;BME280;72737;53.332;6.514;2024-02-15T03:42:43;101344.69;;;16.56;62.06
82951;BME280;72737;53.332;6.514;2024-02-15T03:45:09;101346.03;;;16.40;62.72
82951;BME280;72737;53.332;6.514;2024-02-15T03:47:36;101342.00;;;16.51;62.35
82951;BME280;72737;53.332;6.514;2024-02-15T03:50:05;101339.81;;;16.53;62.22
82951;BME280;72737;53.332;6.514;2024-02-15T03:52:31;101362.22;;;16.60;62.89
82951;BME280;72737;53.332;6.514;2024-02-15T03:54:57;101366.09;;;16.59;62.86
82951;BME280;72737;53.332;6.514;2024-02-15T03:57:23;101344.84;;;16.46;62.79
82951;BME280;72737;53.332;6.514;2024-02-15T03:59:49;101366.09;;;16.59;62.23
82951;BME280;72737;53.332;6.514;2024-02-15T04:02:19;101351.59;;;16.53;62.79
82951;BME280;72737;53.332;6.514;2024-02-15T04:04:44;101353.59;;;16.48;62.98
82951;BME280;72737;53.332;6.514;2024-02-15T04:07:13;101355.44;;;16.52;63.09
82951;BME280;72737;53.332;6.514;2024-02-15T04:09:39;101356.41;;;16.43;63.34
82951;BME280;72737;53.332;6.514;2024-02-15T04:12:05;101350.19;;;16.37;63.88
82951;BME280;72737;53.332;6.514;2024-02-15T04:14:33;101353.13;;;16.41;63.81
82951;BME280;72737;53.332;6.514;2024-02-15T04:16:59;101350.72;;;16.39;63.67
82951;BME280;72737;53.332;6.514;2024-02-15T04:19:25;101345.28;;;16.53;63.39
82951;BME280;72737;53.332;6.514;2024-02-15T04:21:50;101342.47;;;16.39;63.36
82951;BME280;72737;53.332;6.514;2024-02-15T04:24:16;101352.50;;;16.49;63.96
82951;BME280;72737;53.332;6.514;2024-02-15T04:26:42;101354.56;;;16.57;63.21
82951;BME280;72737;53.332;6.514;2024-02-15T04:29:07;101348.59;;;16.50;63.93
82951;BME280;72737;53.332;6.514;2024-02-15T04:31:35;101352.41;;;16.54;63.71
82951;BME280;72737;53.332;6.514;2024-02-15T04:34:04;101344.25;;;16.49;63.49
82951;BME280;72737;53.332;6.514;2024-02-15T04:36:29;101353.59;;;16.48;63.67
82951;BME280;72737;53.332;6.514;2024-02-15T04:38:59;101353.44;;;16.58;63.27
82951;BME280;72737;53.332;6.514;2024-02-15T04:41:25;101362.22;;;16.60;63.42
82951;BME280;72737;53.332;6.514;2024-02-15T04:43:50;101352.88;;;16.61;62.80
82951;BME280;72737;53.332;6.514;2024-02-15T04:46:16;101356.44;;;16.61;63.52
82951;BME280;72737;53.332;6.514;2024-02-15T04:48:42;101352.16;;;16.50;63.52
82951;BME280;72737;53.332;6.514;2024-02-15T04:51:11;101340.47;;;16.45;63.65
82951;BME280;72737;53.332;6.514;2024-02-15T04:53:37;101339.06;;;16.47;63.65
82951;BME280;72737;53.332;6.514;2024-02-15T04:56:07;101347.50;;;16.51;63.46
82951;BME280;72737;53.332;6.514;2024-02-15T04:58:39;101345.47;;;16.61;63.56
82951;BME280;72737;53.332;6.514;2024-02-15T05:01:12;101341.91;;;16.61;63.48
82951;BME280;72737;53.332;6.514;2024-02-15T05:03:38;101324.97;;;16.54;63.51
82951;BME280;72737;53.332;6.514;2024-02-15T05:06:03;101325.66;;;16.64;63.62
82951;BME280;72737;53.332;6.514;2024-02-15T05:08:34;101329.19;;;16.65;63.33
82951;BME280;72737;53.332;6.514;2024-02-15T05:11:02;101310.44;;;16.72;62.36
82951;BME280;72737;53.332;6.514;2024-02-15T05:13:29;101306.28;;;16.75;62.62
82951;BME280;72737;53.332;6.514;2024-02-15T05:15:55;101295.78;;;16.63;62.61
82951;BME280;72737;53.332;6.514;2024-02-15T05:18:20;101291.69;;;16.60;62.68
82951;BME280;72737;53.332;6.514;2024-02-15T05:20:46;101293.53;;;16.65;62.63
82951;BME280;72737;53.332;6.514;2024-02-15T05:23:12;101277.16;;;16.60;62.40
82951;BME280;72737;53.332;6.514;2024-02-15T05:25:38;101277.69;;;16.62;62.42
82951;BME280;72737;53.332;6.514;2024-02-15T05:28:04;101278.50;;;16.62;62.52
82951;BME280;72737;53.332;6.514;2024-02-15T05:30:31;101286.44;;;16.64;62.12
82951;BME280;72737;53.332;6.514;2024-02-15T05:32:58;101282.88;;;16.63;62.35
82951;BME280;72737;53.332;6.514;2024-02-15T05:35:23;101290.88;;;16.60;62.52
82951;BME280;72737;53.332;6.514;2024-02-15T05:37:50;101287.69;;;16.53;62.51
82951;BME280;72737;53.332;6.514;2024-02-15T05:40:18;101290.91;;;16.55;62.62
82951;BME280;72737;53.332;6.514;2024-02-15T05:42:44;101285.97;;;16.57;62.37
82951;BME280;72737;53.332;6.514;2024-02-15T05:47:50;101284.66;;;16.54;62.42
82951;BME280;72737;53.332;6.514;2024-02-15T05:50:15;101281.06;;;16.54;62.12
82951;BME280;72737;53.332;6.514;2024-02-15T05:52:40;101285.50;;;16.50;61.81
82951;BME280;72737;53.332;6.514;2024-02-15T05:55:07;101279.53;;;16.48;62.09
82951;BME280;72737;53.332;6.514;2024-02-15T05:57:32;101265.69;;;16.39;62.18
82951;BME280;72737;53.332;6.514;2024-02-15T05:59:58;101285.50;;;16.50;62.53
82951;BME280;72737;53.332;6.514;2024-02-15T06:02:27;101287.88;;;16.56;62.02
82951;BME280;72737;53.332;6.514;2024-02-15T06:04:53;101283.09;;;16.48;62.25
82951;BME280;72737;53.332;6.514;2024-02-15T06:07:25;101281.16;;;16.49;61.88
82951;BME280;72737;53.332;6.514;2024-02-15T06:09:51;101292.72;;;16.46;61.92
82951;BME280;72737;53.332;6.514;2024-02-15T06:12:16;101288.78;;;16.52;62.19
82951;BME280;72737;53.332;6.514;2024-02-15T06:14:41;101278.78;;;16.42;61.94
82951;BME280;72737;53.332;6.514;2024-02-15T06:17:07;101279.25;;;16.49;61.69
82951;BME280;72737;53.332;6.514;2024-02-15T06:19:34;101293.66;;;16.55;61.84
82951;BME280;72737;53.332;6.514;2024-02-15T06:21:59;101290.88;;;16.60;61.63
82951;BME280;72737;53.332;6.514;2024-02-15T06:24:26;101292.00;;;16.59;61.71
82951;BME280;72737;53.332;6.514;2024-02-15T06:26:53;101290.06;;;16.59;61.30
82951;BME280;72737;53.332;6.514;2024-02-15T06:29:25;101279.44;;;16.53;61.54
82951;BME280;72737;53.332;6.514;2024-02-15T06:32:09;101292.06;;;16.54;61.30
82951;BME280;72737;53.332;6.514;2024-02-15T06:34:53;101293.16;;;16.53;61.73
82951;BME280;72737;53.332;6.514;2024-02-15T06:37:38;101297.31;;;16.50;61.31
82951;BME280;72737;53.332;6.514;2024-02-15T06:40:24;101278.41;;;16.49;61.16
82951;BME280;72737;53.332;6.514;2024-02-15T06:42:49;101285.97;;;16.57;61.16
82951;BME280;72737;53.332;6.514;2024-02-15T06:45:14;101287.59;;;16.58;61.26
82951;BME280;72737;53.332;6.514;2024-02-15T06:47:42;101282.69;;;16.55;61.24
82951;BME280;72737;53.332;6.514;2024-02-15T06:50:13;101282.69;;;16.55;60.86
82951;BME280;72737;53.332;6.514;2024-02-15T06:52:39;101278.69;;;16.47;61.38
82951;BME280;72737;53.332;6.514;2024-02-15T06:55:08;101291.22;;;16.53;61.12
82951;BME280;72737;53.332;6.514;2024-02-15T06:57:38;101302.78;;;16.50;61.27
82951;BME280;72737;53.332;6.514;2024-02-15T07:00:06;101299.53;;;16.48;61.20
82951;BME280;72737;53.332;6.514;2024-02-15T07:02:35;101298.72;;;16.48;61.03
82951;BME280;72737;53.332;6.514;2024-02-15T07:05:00;101289.38;;;16.49;61.40
82951;BME280;72737;53.332;6.514;2024-02-15T07:07:26;101291.59;;;16.47;61.17
82951;BME280;72737;53.332;6.514;2024-02-15T07:09:51;101298.59;;;16.39;61.51
82951;BME280;72737;53.332;6.514;2024-02-15T07:12:17;101295.16;;;16.47;60.82
82951;BME280;72737;53.332;6.514;2024-02-15T07:14:45;101304.22;;;16.48;61.04
82951;BME280;72737;53.332;6.514;2024-02-15T07:17:12;101287.97;;;16.51;60.71
82951;BME280;72737;53.332;6.514;2024-02-15T07:19:42;101286.19;;;16.42;60.94
82951;BME280;72737;53.332;6.514;2024-02-15T07:22:08;101291.19;;;16.40;61.23
82951;BME280;72737;53.332;6.514;2024-02-15T07:24:34;101292.28;;;16.39;61.36
82951;BME280;72737;53.332;6.514;2024-02-15T07:27:00;101296.66;;;16.40;61.09
82951;BME280;72737;53.332;6.514;2024-02-15T07:29:26;101290.56;;;16.43;60.80
82951;BME280;72737;53.332;6.514;2024-02-15T07:31:52;101294.34;;;16.47;61.03
82951;BME280;72737;53.332;6.514;2024-02-15T07:34:19;101286.28;;;16.37;61.21
82951;BME280;72737;53.332;6.514;2024-02-15T07:36:44;101286.47;;;16.40;61.42
82951;BME280;72737;53.332;6.514;2024-02-15T07:39:10;101276.34;;;16.41;60.79
82951;BME280;72737;53.332;6.514;2024-02-15T07:41:40;101276.25;;;16.46;60.67
82951;BME280;72737;53.332;6.514;2024-02-15T07:44:05;101258.28;;;16.40;60.81
82951;BME280;72737;53.332;6.514;2024-02-15T07:46:31;101255.22;;;16.41;61.02
82951;BME280;72737;53.332;6.514;2024-02-15T07:48:58;101262.13;;;16.39;61.34
82951;BME280;72737;53.332;6.514;2024-02-15T07:51:24;101273.09;;;16.39;60.94
82951;BME280;72737;53.332;6.514;2024-02-15T07:53:52;101281.25;;;16.44;60.96
82951;BME280;72737;53.332;6.514;2024-02-15T07:56:17;101279.00;;;16.46;60.63
82951;BME280;72737;53.332;6.514;2024-02-15T07:58:45;101277.53;;;16.35;60.76
82951;BME280;72737;53.332;6.514;2024-02-15T08:01:14;101295.25;;;16.42;60.58
82951;BME280;72737;53.332;6.514;2024-02-15T08:03:40;101285.78;;;16.35;60.70
82951;BME280;72737;53.332;6.514;2024-02-15T08:06:16;101293.81;;;16.45;61.06
82951;BME280;72737;53.332;6.514;2024-02-15T08:08:42;101276.34;;;16.41;60.59
82951;BME280;72737;53.332;6.514;2024-02-15T08:11:09;101291.19;;;16.40;60.87
82951;BME280;72737;53.332;6.514;2024-02-15T08:13:44;101296.06;;;16.43;60.57
82951;BME280;72737;53.332;6.514;2024-02-15T08:16:15;101303.75;;;16.41;60.54
82951;BME280;72737;53.332;6.514;2024-02-15T08:18:44;101294.44;;;16.42;61.02
82951;BME280;72737;53.332;6.514;2024-02-15T08:21:11;101292.50;;;16.42;60.71
82951;BME280;72737;53.332;6.514;2024-02-15T08:23:37;101281.31;;;16.39;60.70
82951;BME280;72737;53.332;6.514;2024-02-15T08:26:03;101296.88;;;16.43;60.86
82951;BME280;72737;53.332;6.514;2024-02-15T08:28:28;101296.06;;;16.43;60.32
82951;BME280;72737;53.332;6.514;2024-02-15T08:30:55;101291.25;;;16.35;60.42
82951;BME280;72737;53.332;6.514;2024-02-15T08:33:24;101290.88;;;16.41;60.66
82951;BME280;72737;53.332;6.514;2024-02-15T08:35:50;101289.00;;;16.37;60.80
82951;BME280;72737;53.332;6.514;2024-02-15T08:38:16;101287.09;;;16.37;60.34
82951;BME280;72737;53.332;6.514;2024-02-15T08:40:42;101270.19;;;16.30;60.58
82951;BME280;72737;53.332;6.514;2024-02-15T08:43:09;101276.84;;;16.43;60.71
82951;BME280;72737;53.332;6.514;2024-02-15T08:45:34;101276.84;;;16.43;60.64
82951;BME280;72737;53.332;6.514;2024-02-15T08:48:00;101286.28;;;16.37;60.52
82951;BME280;72737;53.332;6.514;2024-02-15T08:50:29;101274.28;;;16.33;61.03
82951;BME280;72737;53.332;6.514;2024-02-15T08:52:55;101279.53;;;16.29;61.03
82951;BME280;72737;53.332;6.514;2024-02-15T08:55:21;101277.91;;;16.28;60.82
82951;BME280;72737;53.332;6.514;2024-02-15T08:57:51;101277.63;;;16.29;61.10
82951;BME280;72737;53.332;6.514;2024-02-15T09:00:17;101279.75;;;16.33;60.72
82951;BME280;72737;53.332;6.514;2024-02-15T09:02:44;101278.72;;;16.28;60.76
82951;BME280;72737;53.332;6.514;2024-02-15T09:05:10;101288.06;;;16.27;60.81
82951;BME280;72737;53.332;6.514;2024-02-15T09:07:42;101280.50;;;16.19;61.11
82951;BME280;72737;53.332;6.514;2024-02-15T09:10:09;101281.53;;;16.23;61.06
82951;BME280;72737;53.332;6.514;2024-02-15T09:12:36;101278.81;;;16.23;61.32
82951;BME280;72737;53.332;6.514;2024-02-15T09:15:03;101279.53;;;16.29;60.95
82951;BME280;72737;53.332;6.514;2024-02-15T09:17:29;101283.59;;;16.31;60.75
82951;BME280;72737;53.332;6.514;2024-02-15T09:19:57;101279.22;;;16.30;60.46
82951;BME280;72737;53.332;6.514;2024-02-15T09:22:23;101276.19;;;16.32;60.78
82951;BME280;72737;53.332;6.514;2024-02-15T09:24:48;101284.63;;;16.36;60.29
82951;BME280;72737;53.332;6.514;2024-02-15T09:27:14;101274.88;;;16.29;60.44
82951;BME280;72737;53.332;6.514;2024-02-15T09:29:40;101274.28;;;16.33;60.46
82951;BME280;72737;53.332;6.514;2024-02-15T09:32:06;101271.25;;;16.34;60.28
82951;BME280;72737;53.332;6.514;2024-02-15T09:34:31;101266.56;;;16.35;60.80
82951;BME280;72737;53.332;6.514;2024-02-15T09:36:58;101257.81;;;16.33;60.63
82951;BME280;72737;53.332;6.514;2024-02-15T09:39:23;101263.84;;;16.35;60.52
82951;BME280;72737;53.332;6.514;2024-02-15T09:41:49;101258.91;;;16.31;60.55
82951;BME280;72737;53.332;6.514;2024-02-15T09:44:23;101260.78;;;16.36;60.17
82951;BME280;72737;53.332;6.514;2024-02-15T09:46:59;101258.84;;;16.37;60.30
82951;BME280;72737;53.332;6.514;2024-02-15T09:49:29;101259.22;;;16.30;60.30
82951;BME280;72737;53.332;6.514;2024-02-15T09:51:56;101258.63;;;16.33;60.51
82951;BME280;72737;53.332;6.514;2024-02-15T09:54:23;101256.19;;;16.31;60.55
82951;BME280;72737;53.332;6.514;2024-02-15T09:56:51;101256.88;;;16.23;60.60
82951;BME280;72737;53.332;6.514;2024-02-15T09:59:18;101266.94;;;16.28;60.47
82951;BME280;72737;53.332;6.514;2024-02-15T10:01:47;101262.78;;;16.30;59.94
82951;BME280;72737;53.332;6.514;2024-02-15T10:04:14;101261.81;;;16.21;61.12
82951;BME280;72737;53.332;6.514;2024-02-15T10:06:47;101257.69;;;16.24;60.66
82951;BME280;72737;53.332;6.514;2024-02-15T10:09:29;101244.88;;;16.19;60.63
82951;BME280;72737;53.332;6.514;2024-02-15T10:11:56;101252.41;;;16.27;60.69
82951;BME280;72737;53.332;6.514;2024-02-15T10:14:26;101260.03;;;16.30;60.35
82951;BME280;72737;53.332;6.514;2024-02-15T10:16:52;101260.03;;;16.30;60.74
82951;BME280;72737;53.332;6.514;2024-02-15T10:19:22;101268.03;;;16.27;60.80
82951;BME280;72737;53.332;6.514;2024-02-15T10:21:54;101264.41;;;16.31;60.16
82951;BME280;72737;53.332;6.514;2024-02-15T10:24:23;101260.03;;;16.30;60.24
82951;BME280;72737;53.332;6.514;2024-02-15T10:26:50;101257.81;;;16.33;60.22
82951;BME280;72737;53.332;6.514;2024-02-15T10:29:16;101255.97;;;16.28;60.99
82951;BME280;72737;53.332;6.514;2024-02-15T10:32:02;101243.38;;;16.27;60.30
82951;BME280;72737;53.332;6.514;2024-02-15T10:34:28;101248.25;;;16.30;60.15
82951;BME280;72737;53.332;6.514;2024-02-15T10:36:56;101250.19;;;16.29;60.44
82951;BME280;72737;53.332;6.514;2024-02-15T10:39:35;101247.66;;;16.33;60.55
82951;BME280;72737;53.332;6.514;2024-02-15T10:42:00;101255.69;;;16.29;60.30
82951;BME280;72737;53.332;6.514;2024-02-15T10:44:27;101250.97;;;16.30;60.24
82951;BME280;72737;53.332;6.514;2024-02-15T10:46:54;101253.88;;;16.20;60.52
82951;BME280;72737;53.332;6.514;2024-02-15T10:49:21;101266.94;;;16.28;60.53
82951;BME280;72737;53.332;6.514;2024-02-15T10:51:54;101263.38;;;16.27;60.71
82951;BME280;72737;53.332;6.514;2024-02-15T10:54:43;101266.03;;;16.33;60.48
82951;BME280;72737;53.332;6.514;2024-02-15T10:57:12;101266.03;;;16.33;60.15
82951;BME280;72737;53.332;6.514;2024-02-15T10:59:50;101263.31;;;16.33;60.55
82951;BME280;72737;53.332;6.514;2024-02-15T11:02:31;101268.25;;;16.30;60.69
82951;BME280;72737;53.332;6.514;2024-02-15T11:05:09;101272.22;;;16.24;60.34
82951;BME280;72737;53.332;6.514;2024-02-15T11:07:36;101266.94;;;16.28;60.73
82951;BME280;72737;53.332;6.514;2024-02-15T11:10:14;101247.81;;;16.23;60.57
82951;BME280;72737;53.332;6.514;2024-02-15T11:12:42;101259.81;;;16.27;60.40
82951;BME280;72737;53.332;6.514;2024-02-15T11:15:09;101251.59;;;16.27;60.39
82951;BME280;72737;53.332;6.514;2024-02-15T11:20:02;101243.22;;;16.18;60.50
82951;BME280;72737;53.332;6.514;2024-02-15T11:22:34;101257.69;;;16.24;60.92
82951;BME280;72737;53.332;6.514;2024-02-15T11:25:05;101257.28;;;16.30;60.52
82951;BME280;72737;53.332;6.514;2024-02-15T11:27:38;101257.59;;;16.29;60.27
82951;BME280;72737;53.332;6.514;2024-02-15T11:30:07;101245.56;;;16.25;60.51
82951;BME280;72737;53.332;6.514;2024-02-15T11:32:36;101255.91;;;16.33;60.04
82951;BME280;72737;53.332;6.514;2024-02-15T11:35:22;101257.81;;;16.33;60.06
82951;BME280;72737;53.332;6.514;2024-02-15T11:42:53;101228.25;;;16.11;60.29
82951;BME280;72737;53.332;6.514;2024-02-15T11:45:19;101246.47;;;16.20;60.43
82951;BME280;72737;53.332;6.514;2024-02-15T11:47:53;101248.03;;;16.26;60.56
82951;BME280;72737;53.332;6.514;2024-02-15T11:50:20;101250.78;;;16.26;60.39
82951;BME280;72737;53.332;6.514;2024-02-15T11:52:47;101248.19;;;16.16;60.89
82951;BME280;72737;53.332;6.514;2024-02-15T11:55:22;101251.97;;;16.20;60.42
82951;BME280;72737;53.332;6.514;2024-02-15T11:58:01;101247.69;;;16.14;60.75
82951;BME280;72737;53.332;6.514;2024-02-15T12:00:36;101239.59;;;16.23;60.77
82951;BME280;72737;53.332;6.514;2024-02-15T12:03:22;101231.94;;;16.20;60.98
82951;BME280;72737;53.332;6.514;2024-02-15T12:06:06;101230.53;;;16.22;60.58
82951;BME280;72737;53.332;6.514;2024-02-15T12:08:52;101229.38;;;16.28;60.43
82951;BME280;72737;53.332;6.514;2024-02-15T12:11:36;101220.56;;;16.13;60.70
82951;BME280;72737;53.332;6.514;2024-02-15T12:14:21;101221.28;;;16.18;60.66
82951;BME280;72737;53.332;6.514;2024-02-15T12:17:06;101219.56;;;16.22;60.43
82951;BME280;72737;53.332;6.514;2024-02-15T12:19:52;101219.22;;;16.29;60.26
82951;BME280;72737;53.332;6.514;2024-02-15T12:22:27;101196.00;;;16.21;60.53
82951;BME280;72737;53.332;6.514;2024-02-15T12:25:03;101211.28;;;16.27;60.43
82951;BME280;72737;53.332;6.514;2024-02-15T12:27:41;101210.16;;;16.28;60.28
82951;BME280;72737;53.332;6.514;2024-02-15T12:30:13;101209.34;;;16.28;60.55
82951;BME280;72737;53.332;6.514;2024-02-15T12:32:39;101207.19;;;16.25;60.37
82951;BME280;72737;53.332;6.514;2024-02-15T12:35:16;101201.94;;;16.28;60.38
82951;BME280;72737;53.332;6.514;2024-02-15T12:40:30;101208.31;;;16.24;60.52
82951;BME280;72737;53.332;6.514;2024-02-15T12:42:56;101198.09;;;16.29;60.30
82951;BME280;72737;53.332;6.514;2024-02-15T12:45:25;101207.63;;;16.32;60.51
82951;BME280;72737;53.332;6.514;2024-02-15T12:47:53;101198.88;;;16.30;60.60
82951;BME280;72737;53.332;6.514;2024-02-15T12:50:21;101202.16;;;16.32;60.29
82951;BME280;72737;53.332;6.514;2024-02-15T12:52:47;101193.09;;;16.31;60.27
82951;BME280;72737;53.332;6.514;2024-02-15T12:55:18;101190.34;;;16.31;60.26
82951;BME280;72737;53.332;6.514;2024-02-15T12:57:51;101189.53;;;16.31;60.56
82951;BME280;72737;53.332;6.514;2024-02-15T13:00:21;101192.06;;;16.27;60.55
82951;BME280;72737;53.332;6.514;2024-02-15T13:02:49;101197.28;;;16.29;60.66
82951;BME280;72737;53.332;6.514;2024-02-15T13:05:18;101193.09;;;16.31;60.64
82951;BME280;72737;53.332;6.514;2024-02-15T13:07:53;101185.97;;;16.30;60.44